sensor_id;sensor_type;location;lat;lon;timestamp;pressure;altitude;pressure_sealevel;temperature
19061;BMP280;9663;48.996;8.334;2023-09-08T00:02:03;100347.25;;;25.49
19061;BMP280;9663;48.996;8.334;2023-09-08T00:04:30;100349.28;;;25.44
19061;BMP280;9663;48.996;8.334;2023-09-08T00:06:55;100341.88;;;25.38
19061;BMP280;9663;48.996;8.334;2023-09-08T00:09:21;100341.25;;;25.34
19061;BMP280;9663;48.996;8.334;2023-09-08T00:11:47;100345.88;;;25.30
19061;BMP280;9663;48.996;8.334;2023-09-08T00:14:12;100342.75;;;25.25
19061;BMP280;9663;48.996;8.334;2023-09-08T00:16:38;100347.28;;;25.21
19061;BMP280;9663;48.996;8.334;2023-09-08T00:19:04;100343.97;;;25.19
19061;BMP280;9663;48.996;8.334;2023-09-08T00:21:30;100348.41;;;25.17
19061;BMP280;9663;48.996;8.334;2023-09-08T00:23:56;100347.03;;;25.12
19061;BMP280;9663;48.996;8.334;2023-09-08T00:26:22;100343.97;;;25.05
19061;BMP280;9663;48.996;8.334;2023-09-08T00:28:48;100346.84;;;25.01
19061;BMP280;9663;48.996;8.334;2023-09-08T00:31:14;100342.78;;;24.97
19061;BMP280;9663;48.996;8.334;2023-09-08T00:33:39;100341.28;;;24.93
19061;BMP280;9663;48.996;8.334;2023-09-08T00:36:06;100341.44;;;24.90
19061;BMP280;9663;48.996;8.334;2023-09-08T00:38:32;100344.13;;;24.89
19061;BMP280;9663;48.996;8.334;2023-09-08T00:40:57;100345.91;;;24.88
19061;BMP280;9663;48.996;8.334;2023-09-08T00:43:25;100337.34;;;24.86
19061;BMP280;9663;48.996;8.334;2023-09-08T00:45:51;100339.22;;;24.84
19061;BMP280;9663;48.996;8.334;2023-09-08T00:48:17;100342.75;;;24.83
19061;BMP280;9663;48.996;8.334;2023-09-08T00:50:43;100339.41;;;24.81
19061;BMP280;9663;48.996;8.334;2023-09-08T00:53:09;100342.22;;;24.78
19061;BMP280;9663;48.996;8.334;2023-09-08T00:55:35;100332.91;;;24.74
19061;BMP280;9663;48.996;8.334;2023-09-08T00:58:02;100331.53;;;24.69
19061;BMP280;9663;48.996;8.334;2023-09-08T01:00:28;100333.56;;;24.64
19061;BMP280;9663;48.996;8.334;2023-09-08T01:02:54;100333.03;;;24.59
19061;BMP280;9663;48.996;8.334;2023-09-08T01:05:21;100341.81;;;24.56
19061;BMP280;9663;48.996;8.334;2023-09-08T01:07:48;100342.75;;;24.55
19061;BMP280;9663;48.996;8.334;2023-09-08T01:10:14;100348.19;;;24.51
19061;BMP280;9663;48.996;8.334;2023-09-08T01:12:41;100345.03;;;24.46
19061;BMP280;9663;48.996;8.334;2023-09-08T01:15:07;100350.31;;;24.45
19061;BMP280;9663;48.996;8.334;2023-09-08T01:17:34;100354.03;;;24.41
19061;BMP280;9663;48.996;8.334;2023-09-08T01:25:40;100350.53;;;24.26
19061;BMP280;9663;48.996;8.334;2023-09-08T01:28:06;100349.88;;;24.23
19061;BMP280;9663;48.996;8.334;2023-09-08T01:30:33;100355.13;;;24.21
19061;BMP280;9663;48.996;8.334;2023-09-08T01:32:59;100357.97;;;24.17
19061;BMP280;9663;48.996;8.334;2023-09-08T01:35:26;100353.91;;;24.13
19061;BMP280;9663;48.996;8.334;2023-09-08T01:37:52;100351.50;;;24.10
19061;BMP280;9663;48.996;8.334;2023-09-08T01:40:18;100356.84;;;24.07
19061;BMP280;9663;48.996;8.334;2023-09-08T01:42:48;100352.00;;;24.01
19061;BMP280;9663;48.996;8.334;2023-09-08T01:45:14;100356.59;;;23.96
19061;BMP280;9663;48.996;8.334;2023-09-08T01:47:40;100352.63;;;23.91
19061;BMP280;9663;48.996;8.334;2023-09-08T01:50:06;100346.13;;;23.84
19061;BMP280;9663;48.996;8.334;2023-09-08T01:52:32;100352.56;;;23.77
19061;BMP280;9663;48.996;8.334;2023-09-08T01:54:57;100340.13;;;23.68
19061;BMP280;9663;48.996;8.334;2023-09-08T01:57:23;100344.72;;;23.63
19061;BMP280;9663;48.996;8.334;2023-09-08T01:59:49;100341.53;;;23.58
19061;BMP280;9663;48.996;8.334;2023-09-08T02:02:14;100337.38;;;23.56
19061;BMP280;9663;48.996;8.334;2023-09-08T02:04:40;100345.97;;;23.56
19061;BMP280;9663;48.996;8.334;2023-09-08T02:07:06;100350.13;;;23.58
19061;BMP280;9663;48.996;8.334;2023-09-08T02:09:36;100347.53;;;23.58
19061;BMP280;9663;48.996;8.334;2023-09-08T02:12:03;100343.13;;;23.60
19061;BMP280;9663;48.996;8.334;2023-09-08T02:14:29;100347.41;;;23.61
19061;BMP280;9663;48.996;8.334;2023-09-08T02:16:57;100346.50;;;23.62
19061;BMP280;9663;48.996;8.334;2023-09-08T02:19:23;100345.66;;;23.62
19061;BMP280;9663;48.996;8.334;2023-09-08T02:21:49;100350.84;;;23.62
19061;BMP280;9663;48.996;8.334;2023-09-08T02:24:15;100351.75;;;23.61
19061;BMP280;9663;48.996;8.334;2023-09-08T02:26:41;100350.91;;;23.60
19061;BMP280;9663;48.996;8.334;2023-09-08T02:29:07;100350.91;;;23.60
19061;BMP280;9663;48.996;8.334;2023-09-08T02:31:33;100347.53;;;23.58
19061;BMP280;9663;48.996;8.334;2023-09-08T02:33:59;100351.06;;;23.58
19061;BMP280;9663;48.996;8.334;2023-09-08T02:36:25;100348.63;;;23.55
19061;BMP280;9663;48.996;8.334;2023-09-08T02:38:52;100358.06;;;23.56
19061;BMP280;9663;48.996;8.334;2023-09-08T02:41:18;100346.94;;;23.54
19061;BMP280;9663;48.996;8.334;2023-09-08T02:43:44;100355.66;;;23.53
19061;BMP280;9663;48.996;8.334;2023-09-08T02:46:10;100350.56;;;23.51
19061;BMP280;9663;48.996;8.334;2023-09-08T02:48:35;100341.97;;;23.51
19061;BMP280;9663;48.996;8.334;2023-09-08T02:51:01;100348.03;;;23.50
19061;BMP280;9663;48.996;8.334;2023-09-08T02:53:27;100341.19;;;23.49
19061;BMP280;9663;48.996;8.334;2023-09-08T02:55:58;100345.63;;;23.47
19061;BMP280;9663;48.996;8.334;2023-09-08T02:58:23;100339.69;;;23.45
19061;BMP280;9663;48.996;8.334;2023-09-08T03:00:49;100333.69;;;23.44
19061;BMP280;9663;48.996;8.334;2023-09-08T03:03:18;100343.31;;;23.42
19061;BMP280;9663;48.996;8.334;2023-09-08T03:05:44;100350.38;;;23.39
19061;BMP280;9663;48.996;8.334;2023-09-08T03:08:09;100346.38;;;23.33
19061;BMP280;9663;48.996;8.334;2023-09-08T03:10:35;100350.06;;;23.29
19061;BMP280;9663;48.996;8.334;2023-09-08T03:13:02;100348.63;;;23.24
19061;BMP280;9663;48.996;8.334;2023-09-08T03:15:27;100354.16;;;23.18
19061;BMP280;9663;48.996;8.334;2023-09-08T03:17:55;100353.63;;;23.12
19061;BMP280;9663;48.996;8.334;2023-09-08T03:20:21;100355.88;;;23.02
19061;BMP280;9663;48.996;8.334;2023-09-08T03:22:46;100363.19;;;22.94
19061;BMP280;9663;48.996;8.334;2023-09-08T03:25:15;100367.00;;;22.87
19061;BMP280;9663;48.996;8.334;2023-09-08T03:27:43;100366.38;;;22.82
19061;BMP280;9663;48.996;8.334;2023-09-08T03:30:10;100386.47;;;22.77
19061;BMP280;9663;48.996;8.334;2023-09-08T03:32:36;100380.72;;;22.73
19061;BMP280;9663;48.996;8.334;2023-09-08T03:35:03;100381.78;;;22.69
19061;BMP280;9663;48.996;8.334;2023-09-08T03:37:31;100383.66;;;22.65
19061;BMP280;9663;48.996;8.334;2023-09-08T03:39:57;100382.84;;;22.65
19061;BMP280;9663;48.996;8.334;2023-09-08T03:42:23;100383.66;;;22.65
19061;BMP280;9663;48.996;8.334;2023-09-08T03:44:48;100381.94;;;22.66
19061;BMP280;9663;48.996;8.334;2023-09-08T03:47:14;100379.28;;;22.67
19061;BMP280;9663;48.996;8.334;2023-09-08T03:49:39;100376.69;;;22.67
19061;BMP280;9663;48.996;8.334;2023-09-08T03:52:05;100377.59;;;22.66
19061;BMP280;9663;48.996;8.334;2023-09-08T03:54:32;100379.28;;;22.67
19061;BMP280;9663;48.996;8.334;2023-09-08T03:56:58;100386.09;;;22.68
19061;BMP280;9663;48.996;8.334;2023-09-08T03:59:23;100392.22;;;22.67
19061;BMP280;9663;48.996;8.334;2023-09-08T04:01:49;100390.44;;;22.68
19061;BMP280;9663;48.996;8.334;2023-09-08T04:04:15;100387.03;;;22.67
19061;BMP280;9663;48.996;8.334;2023-09-08T04:06:41;100392.22;;;22.67
19061;BMP280;9663;48.996;8.334;2023-09-08T04:09:07;100385.28;;;22.68
19061;BMP280;9663;48.996;8.334;2023-09-08T04:11:33;100398.22;;;22.68
19061;BMP280;9663;48.996;8.334;2023-09-08T04:13:58;100393.94;;;22.67
19061;BMP280;9663;48.996;8.334;2023-09-08T04:16:26;100402.63;;;22.66
19061;BMP280;9663;48.996;8.334;2023-09-08T04:18:52;100398.34;;;22.65
19061;BMP280;9663;48.996;8.334;2023-09-08T04:21:17;100398.50;;;22.62
19061;BMP280;9663;48.996;8.334;2023-09-08T04:23:43;100397.59;;;22.63
19061;BMP280;9663;48.996;8.334;2023-09-08T04:26:08;100395.09;;;22.61
19061;BMP280;9663;48.996;8.334;2023-09-08T04:28:34;100399.44;;;22.61
19061;BMP280;9663;48.996;8.334;2023-09-08T04:31:00;100396.94;;;22.59
19061;BMP280;9663;48.996;8.334;2023-09-08T04:33:26;100396.94;;;22.59
19061;BMP280;9663;48.996;8.334;2023-09-08T04:35:52;100393.59;;;22.57
19061;BMP280;9663;48.996;8.334;2023-09-08T04:38:17;100391.00;;;22.57
19061;BMP280;9663;48.996;8.334;2023-09-08T04:40:45;100388.56;;;22.54
19061;BMP280;9663;48.996;8.334;2023-09-08T04:43:12;100394.72;;;22.52
19061;BMP280;9663;48.996;8.334;2023-09-08T04:45:37;100397.38;;;22.50
19061;BMP280;9663;48.996;8.334;2023-09-08T04:48:04;100399.97;;;22.50
19061;BMP280;9663;48.996;8.334;2023-09-08T04:50:30;100402.63;;;22.49
19061;BMP280;9663;48.996;8.334;2023-09-08T04:52:56;100405.19;;;22.49
19061;BMP280;9663;48.996;8.334;2023-09-08T04:55:22;100409.53;;;22.48
19061;BMP280;9663;48.996;8.334;2023-09-08T04:57:47;100416.47;;;22.48
19061;BMP280;9663;48.996;8.334;2023-09-08T05:00:13;100425.03;;;22.48
19061;BMP280;9663;48.996;8.334;2023-09-08T05:02:39;100421.56;;;22.49
19061;BMP280;9663;48.996;8.334;2023-09-08T05:05:05;100420.63;;;22.50
19061;BMP280;9663;48.996;8.334;2023-09-08T05:07:31;100419.72;;;22.51
19061;BMP280;9663;48.996;8.334;2023-09-08T05:09:56;100427.47;;;22.51
19061;BMP280;9663;48.996;8.334;2023-09-08T05:12:22;100438.72;;;22.50
19061;BMP280;9663;48.996;8.334;2023-09-08T05:14:48;100431.03;;;22.49
19061;BMP280;9663;48.996;8.334;2023-09-08T05:17:13;100433.63;;;22.49
19061;BMP280;9663;48.996;8.334;2023-09-08T05:19:39;100432.88;;;22.47
19061;BMP280;9663;48.996;8.334;2023-09-08T05:22:06;100437.22;;;22.46
19061;BMP280;9663;48.996;8.334;2023-09-08T05:24:34;100433.81;;;22.46
19061;BMP280;9663;48.996;8.334;2023-09-08T05:26:59;100435.59;;;22.44
19061;BMP280;9663;48.996;8.334;2023-09-08T05:29:25;100433.88;;;22.44
19061;BMP280;9663;48.996;8.334;2023-09-08T05:31:51;100432.03;;;22.46
19061;BMP280;9663;48.996;8.334;2023-09-08T05:34:17;100437.06;;;22.49
19061;BMP280;9663;48.996;8.334;2023-09-08T05:36:43;100433.34;;;22.55
19061;BMP280;9663;48.996;8.334;2023-09-08T05:39:09;100436.53;;;22.60
19061;BMP280;9663;48.996;8.334;2023-09-08T05:41:35;100444.06;;;22.64
19061;BMP280;9663;48.996;8.334;2023-09-08T05:44:01;100439.41;;;22.71
19061;BMP280;9663;48.996;8.334;2023-09-08T05:46:27;100446.03;;;22.76
19061;BMP280;9663;48.996;8.334;2023-09-08T05:48:53;100441.44;;;22.81
19061;BMP280;9663;48.996;8.334;2023-09-08T05:51:19;100430.88;;;22.85
19061;BMP280;9663;48.996;8.334;2023-09-08T05:53:44;100437.53;;;22.91
19061;BMP280;9663;48.996;8.334;2023-09-08T05:56:10;100438.13;;;22.96
19061;BMP280;9663;48.996;8.334;2023-09-08T05:58:36;100440.47;;;23.00
19061;BMP280;9663;48.996;8.334;2023-09-08T06:01:03;100441.00;;;23.07
19061;BMP280;9663;48.996;8.334;2023-09-08T06:03:29;100438.00;;;23.14
19061;BMP280;9663;48.996;8.334;2023-09-08T06:05:56;100445.53;;;23.18
19061;BMP280;9663;48.996;8.334;2023-09-08T06:08:22;100436.53;;;23.25
19061;BMP280;9663;48.996;8.334;2023-09-08T06:10:48;100440.44;;;23.32
19061;BMP280;9663;48.996;8.334;2023-09-08T06:13:14;100442.56;;;23.41
19061;BMP280;9663;48.996;8.334;2023-09-08T06:15:40;100441.25;;;23.50
19061;BMP280;9663;48.996;8.334;2023-09-08T06:18:05;100441.81;;;23.55
19061;BMP280;9663;48.996;8.334;2023-09-08T06:20:31;100443.97;;;23.63
19061;BMP280;9663;48.996;8.334;2023-09-08T06:22:57;100446.06;;;23.72
19061;BMP280;9663;48.996;8.334;2023-09-08T06:25:23;100445.63;;;23.80
19061;BMP280;9663;48.996;8.334;2023-09-08T06:27:48;100444.31;;;23.88
19061;BMP280;9663;48.996;8.334;2023-09-08T06:30:14;100443.03;;;23.95
19061;BMP280;9663;48.996;8.334;2023-09-08T06:32:42;100443.44;;;24.03
19061;BMP280;9663;48.996;8.334;2023-09-08T06:35:08;100438.66;;;24.11
19061;BMP280;9663;48.996;8.334;2023-09-08T06:37:40;100445.00;;;24.21
19061;BMP280;9663;48.996;8.334;2023-09-08T06:40:06;100438.41;;;24.31
19061;BMP280;9663;48.996;8.334;2023-09-08T06:42:32;100442.91;;;24.43
19061;BMP280;9663;48.996;8.334;2023-09-08T06:44:59;100450.88;;;24.53
19061;BMP280;9663;48.996;8.334;2023-09-08T06:47:25;100452.88;;;24.64
19061;BMP280;9663;48.996;8.334;2023-09-08T06:49:51;100443.72;;;24.72
19061;BMP280;9663;48.996;8.334;2023-09-08T06:52:19;100441.22;;;24.85
19061;BMP280;9663;48.996;8.334;2023-09-08T06:54:45;100450.97;;;24.95
19061;BMP280;9663;48.996;8.334;2023-09-08T06:57:12;100446.84;;;25.06
19061;BMP280;9663;48.996;8.334;2023-09-08T06:59:38;100448.78;;;25.17
19061;BMP280;9663;48.996;8.334;2023-09-08T07:02:04;100441.28;;;25.26
19061;BMP280;9663;48.996;8.334;2023-09-08T07:04:30;100450.00;;;25.39
19061;BMP280;9663;48.996;8.334;2023-09-08T07:06:57;100451.94;;;25.49
19061;BMP280;9663;48.996;8.334;2023-09-08T07:09:22;100446.91;;;25.60
19061;BMP280;9663;48.996;8.334;2023-09-08T07:11:48;100456.56;;;25.72
19061;BMP280;9663;48.996;8.334;2023-09-08T07:14:14;100452.38;;;25.83
19061;BMP280;9663;48.996;8.334;2023-09-08T07:16:39;100448.16;;;25.95
19061;BMP280;9663;48.996;8.334;2023-09-08T07:19:05;100449.34;;;26.03
19061;BMP280;9663;48.996;8.334;2023-09-08T07:21:31;100448.91;;;26.09
19061;BMP280;9663;48.996;8.334;2023-09-08T07:23:56;100447.63;;;26.16
19061;BMP280;9663;48.996;8.334;2023-09-08T07:26:23;100441.75;;;26.26
19061;BMP280;9663;48.996;8.334;2023-09-08T07:28:49;100444.69;;;26.34
19061;BMP280;9663;48.996;8.334;2023-09-08T07:31:14;100455.25;;;26.45
19061;BMP280;9663;48.996;8.334;2023-09-08T07:33:40;100451.91;;;26.56
19061;BMP280;9663;48.996;8.334;2023-09-08T07:36:07;100446.00;;;26.66
19061;BMP280;9663;48.996;8.334;2023-09-08T07:38:34;100448.91;;;26.74
19061;BMP280;9663;48.996;8.334;2023-09-08T07:41:02;100443.09;;;26.83
19061;BMP280;9663;48.996;8.334;2023-09-08T07:43:28;100450.44;;;26.90
19061;BMP280;9663;48.996;8.334;2023-09-08T07:45:54;100456.06;;;26.97
19061;BMP280;9663;48.996;8.334;2023-09-08T07:48:20;100458.78;;;27.08
19061;BMP280;9663;48.996;8.334;2023-09-08T07:50:45;100456.03;;;27.21
19061;BMP280;9663;48.996;8.334;2023-09-08T07:53:11;100455.81;;;27.37
19061;BMP280;9663;48.996;8.334;2023-09-08T07:55:37;100454.78;;;27.52
19061;BMP280;9663;48.996;8.334;2023-09-08T07:58:03;100462.47;;;27.65
19061;BMP280;9663;48.996;8.334;2023-09-08T08:00:30;100460.16;;;27.73
19061;BMP280;9663;48.996;8.334;2023-09-08T08:02:57;100455.09;;;27.83
19061;BMP280;9663;48.996;8.334;2023-09-08T08:05:24;100451.16;;;27.90
19061;BMP280;9663;48.996;8.334;2023-09-08T08:07:50;100448.47;;;28.02
19061;BMP280;9663;48.996;8.334;2023-09-08T08:10:16;100444.88;;;28.15
19061;BMP280;9663;48.996;8.334;2023-09-08T08:12:42;100449.25;;;28.27
19061;BMP280;9663;48.996;8.334;2023-09-08T08:15:10;100453.88;;;28.35
19061;BMP280;9663;48.996;8.334;2023-09-08T08:17:36;100448.22;;;28.40
19061;BMP280;9663;48.996;8.334;2023-09-08T08:20:05;100458.66;;;28.51
19061;BMP280;9663;48.996;8.334;2023-09-08T08:22:33;100452.69;;;28.62
19061;BMP280;9663;48.996;8.334;2023-09-08T08:24:59;100452.34;;;28.66
19061;BMP280;9663;48.996;8.334;2023-09-08T08:27:25;100442.38;;;28.71
19061;BMP280;9663;48.996;8.334;2023-09-08T08:29:50;100444.22;;;28.82
19061;BMP280;9663;48.996;8.334;2023-09-08T08:32:17;100437.34;;;28.91
19061;BMP280;9663;48.996;8.334;2023-09-08T08:34:43;100443.53;;;29.01
19061;BMP280;9663;48.996;8.334;2023-09-08T08:37:10;100445.41;;;29.10
19061;BMP280;9663;48.996;8.334;2023-09-08T08:39:36;100452.56;;;29.19
19061;BMP280;9663;48.996;8.334;2023-09-08T08:42:10;100445.72;;;29.29
19061;BMP280;9663;48.996;8.334;2023-09-08T08:44:40;100439.66;;;29.39
19061;BMP280;9663;48.996;8.334;2023-09-08T08:47:10;100443.19;;;29.49
19061;BMP280;9663;48.996;8.334;2023-09-08T08:49:38;100444.72;;;29.63
19061;BMP280;9663;48.996;8.334;2023-09-08T08:52:05;100437.38;;;29.78
19061;BMP280;9663;48.996;8.334;2023-09-08T08:54:39;100437.59;;;29.86
19061;BMP280;9663;48.996;8.334;2023-09-08T08:57:06;100427.72;;;29.90
19061;BMP280;9663;48.996;8.334;2023-09-08T08:59:32;100429.81;;;29.96
19061;BMP280;9663;48.996;8.334;2023-09-08T09:01:59;100437.19;;;30.02
19061;BMP280;9663;48.996;8.334;2023-09-08T09:04:26;100439.31;;;30.08
19061;BMP280;9663;48.996;8.334;2023-09-08T09:06:55;100439.66;;;30.14
19061;BMP280;9663;48.996;8.334;2023-09-08T09:09:22;100430.47;;;30.19
19061;BMP280;9663;48.996;8.334;2023-09-08T09:11:49;100425.44;;;30.27
19061;BMP280;9663;48.996;8.334;2023-09-08T09:14:15;100434.81;;;30.41
19061;BMP280;9663;48.996;8.334;2023-09-08T09:16:43;100432.59;;;30.57
19061;BMP280;9663;48.996;8.334;2023-09-08T09:19:18;100432.69;;;30.75
19061;BMP280;9663;48.996;8.334;2023-09-08T09:21:51;100441.91;;;30.90
19061;BMP280;9663;48.996;8.334;2023-09-08T09:24:40;100440.97;;;30.91
19061;BMP280;9663;48.996;8.334;2023-09-08T09:27:09;100432.56;;;30.97
19061;BMP280;9663;48.996;8.334;2023-09-08T09:29:47;100441.53;;;30.95
19061;BMP280;9663;48.996;8.334;2023-09-08T09:32:14;100434.06;;;30.90
19061;BMP280;9663;48.996;8.334;2023-09-08T09:34:51;100437.63;;;30.89
19061;BMP280;9663;48.996;8.334;2023-09-08T09:37:19;100431.19;;;30.93
19061;BMP280;9663;48.996;8.334;2023-09-08T09:39:50;100426.94;;;31.02
19061;BMP280;9663;48.996;8.334;2023-09-08T09:42:17;100441.59;;;31.04
19061;BMP280;9663;48.996;8.334;2023-09-08T09:44:43;100430.97;;;31.05
19061;BMP280;9663;48.996;8.334;2023-09-08T09:47:10;100435.00;;;31.09
19061;BMP280;9663;48.996;8.334;2023-09-08T09:49:48;100431.13;;;31.13
19061;BMP280;9663;48.996;8.334;2023-09-08T09:52:21;100424.28;;;31.22
19061;BMP280;9663;48.996;8.334;2023-09-08T09:54:48;100418.94;;;31.33
19061;BMP280;9663;48.996;8.334;2023-09-08T09:57:18;100420.13;;;31.49
19061;BMP280;9663;48.996;8.334;2023-09-08T09:59:46;100410.38;;;31.60
19061;BMP280;9663;48.996;8.334;2023-09-08T10:02:14;100408.34;;;31.73
19061;BMP280;9663;48.996;8.334;2023-09-08T10:04:41;100411.38;;;31.78
19061;BMP280;9663;48.996;8.334;2023-09-08T10:07:07;100415.25;;;31.84
19061;BMP280;9663;48.996;8.334;2023-09-08T10:09:35;100409.50;;;31.90
19061;BMP280;9663;48.996;8.334;2023-09-08T10:12:04;100411.03;;;32.01
19061;BMP280;9663;48.996;8.334;2023-09-08T10:14:32;100415.44;;;32.10
19061;BMP280;9663;48.996;8.334;2023-09-08T10:17:02;100410.59;;;32.15
19061;BMP280;9663;48.996;8.334;2023-09-08T10:19:28;100414.63;;;32.19
19061;BMP280;9663;48.996;8.334;2023-09-08T10:22:03;100419.16;;;32.27
19061;BMP280;9663;48.996;8.334;2023-09-08T10:24:37;100412.09;;;32.36
19061;BMP280;9663;48.996;8.334;2023-09-08T10:27:12;100404.13;;;32.47
19061;BMP280;9663;48.996;8.334;2023-09-08T10:29:39;100398.03;;;32.56
19061;BMP280;9663;48.996;8.334;2023-09-08T10:32:08;100397.88;;;32.67
19061;BMP280;9663;48.996;8.334;2023-09-08T10:34:39;100400.63;;;32.75
19061;BMP280;9663;48.996;8.334;2023-09-08T10:37:22;100399.22;;;32.80
19061;BMP280;9663;48.996;8.334;2023-09-08T10:39:51;100407.66;;;32.93
19061;BMP280;9663;48.996;8.334;2023-09-08T10:50:26;100395.69;;;33.44
19061;BMP280;9663;48.996;8.334;2023-09-08T10:53:18;100390.47;;;33.62
19061;BMP280;9663;48.996;8.334;2023-09-08T10:55:49;100390.97;;;33.92
19061;BMP280;9663;48.996;8.334;2023-09-08T10:58:38;100387.72;;;34.15
19061;BMP280;9663;48.996;8.334;2023-09-08T11:01:17;100379.41;;;34.37
19061;BMP280;9663;48.996;8.334;2023-09-08T11:03:48;100380.34;;;34.53
19061;BMP280;9663;48.996;8.334;2023-09-08T11:06:17;100369.19;;;34.59
19061;BMP280;9663;48.996;8.334;2023-09-08T11:08:45;100375.16;;;34.69
19061;BMP280;9663;48.996;8.334;2023-09-08T11:11:13;100371.13;;;34.82
19061;BMP280;9663;48.996;8.334;2023-09-08T11:13:39;100361.69;;;34.97
19061;BMP280;9663;48.996;8.334;2023-09-08T11:16:08;100360.78;;;35.14
19061;BMP280;9663;48.996;8.334;2023-09-08T11:18:35;100361.78;;;35.21
19061;BMP280;9663;48.996;8.334;2023-09-08T11:21:08;100361.56;;;35.40
19061;BMP280;9663;48.996;8.334;2023-09-08T11:23:34;100365.81;;;36.21
19061;BMP280;9663;48.996;8.334;2023-09-08T11:26:01;100357.78;;;37.76
19061;BMP280;9663;48.996;8.334;2023-09-08T11:28:28;100350.56;;;39.38
19061;BMP280;9663;48.996;8.334;2023-09-08T11:30:55;100357.81;;;40.20
19061;BMP280;9663;48.996;8.334;2023-09-08T11:33:23;100344.84;;;40.92
19061;BMP280;9663;48.996;8.334;2023-09-08T11:35:56;100342.53;;;41.76
19061;BMP280;9663;48.996;8.334;2023-09-08T11:38:29;100341.34;;;42.49
19061;BMP280;9663;48.996;8.334;2023-09-08T11:40:57;100329.31;;;43.03
19061;BMP280;9663;48.996;8.334;2023-09-08T11:43:25;100327.94;;;43.75
19061;BMP280;9663;48.996;8.334;2023-09-08T11:45:52;100326.81;;;44.61
19061;BMP280;9663;48.996;8.334;2023-09-08T11:48:19;100317.75;;;45.15
19061;BMP280;9663;48.996;8.334;2023-09-08T11:50:48;100321.78;;;45.36
19061;BMP280;9663;48.996;8.334;2023-09-08T11:53:22;100315.47;;;45.48
19061;BMP280;9663;48.996;8.334;2023-09-08T11:55:49;100319.06;;;45.83
19061;BMP280;9663;48.996;8.334;2023-09-08T11:58:17;100322.38;;;46.07
19061;BMP280;9663;48.996;8.334;2023-09-08T12:00:45;100319.94;;;46.29
19061;BMP280;9663;48.996;8.334;2023-09-08T12:03:15;100317.25;;;46.51
19061;BMP280;9663;48.996;8.334;2023-09-08T12:05:44;100317.81;;;46.76
19061;BMP280;9663;48.996;8.334;2023-09-08T12:08:10;100316.53;;;47.18
19061;BMP280;9663;48.996;8.334;2023-09-08T12:10:41;100305.16;;;47.38
19061;BMP280;9663;48.996;8.334;2023-09-08T12:13:07;100315.13;;;47.54
19061;BMP280;9663;48.996;8.334;2023-09-08T12:15:40;100309.81;;;47.87
19061;BMP280;9663;48.996;8.334;2023-09-08T12:18:12;100313.72;;;48.12
19061;BMP280;9663;48.996;8.334;2023-09-08T12:20:41;100313.16;;;48.27
19061;BMP280;9663;48.996;8.334;2023-09-08T12:23:18;100308.00;;;48.25
19061;BMP280;9663;48.996;8.334;2023-09-08T12:25:49;100302.63;;;48.41
19061;BMP280;9663;48.996;8.334;2023-09-08T12:28:21;100304.63;;;48.88
19061;BMP280;9663;48.996;8.334;2023-09-08T12:30:47;100299.34;;;49.19
19061;BMP280;9663;48.996;8.334;2023-09-08T12:33:15;100296.34;;;49.42
19061;BMP280;9663;48.996;8.334;2023-09-08T12:35:45;100295.41;;;49.84
19061;BMP280;9663;48.996;8.334;2023-09-08T12:38:11;100288.59;;;50.08
19061;BMP280;9663;48.996;8.334;2023-09-08T12:40:38;100291.78;;;50.41
19061;BMP280;9663;48.996;8.334;2023-09-08T12:43:05;100297.06;;;50.62
19061;BMP280;9663;48.996;8.334;2023-09-08T12:45:34;100279.00;;;50.78
19061;BMP280;9663;48.996;8.334;2023-09-08T12:48:02;100284.16;;;50.84
19061;BMP280;9663;48.996;8.334;2023-09-08T12:50:32;100278.28;;;50.92
19061;BMP280;9663;48.996;8.334;2023-09-08T12:52:58;100269.59;;;50.80
19061;BMP280;9663;48.996;8.334;2023-09-08T12:55:26;100267.13;;;50.69
19061;BMP280;9663;48.996;8.334;2023-09-08T12:57:52;100271.19;;;50.81
19061;BMP280;9663;48.996;8.334;2023-09-08T13:00:22;100265.53;;;50.78
19061;BMP280;9663;48.996;8.334;2023-09-08T13:02:51;100268.63;;;50.50
19061;BMP280;9663;48.996;8.334;2023-09-08T13:05:16;100260.88;;;50.22
19061;BMP280;9663;48.996;8.334;2023-09-08T13:07:42;100260.63;;;50.24
19061;BMP280;9663;48.996;8.334;2023-09-08T13:10:08;100261.53;;;50.34
19061;BMP280;9663;48.996;8.334;2023-09-08T13:12:34;100258.03;;;50.39
19061;BMP280;9663;48.996;8.334;2023-09-08T13:15:00;100254.09;;;50.56
19061;BMP280;9663;48.996;8.334;2023-09-08T13:17:25;100259.34;;;50.82
19061;BMP280;9663;48.996;8.334;2023-09-08T13:19:51;100251.59;;;51.20
19061;BMP280;9663;48.996;8.334;2023-09-08T13:22:17;100249.44;;;51.22
19061;BMP280;9663;48.996;8.334;2023-09-08T13:24:43;100255.34;;;51.09
19061;BMP280;9663;48.996;8.334;2023-09-08T13:27:09;100245.69;;;50.52
19061;BMP280;9663;48.996;8.334;2023-09-08T13:29:34;100247.00;;;49.63
19061;BMP280;9663;48.996;8.334;2023-09-08T13:32:01;100245.44;;;48.67
19061;BMP280;9663;48.996;8.334;2023-09-08T13:34:27;100240.81;;;47.76
19061;BMP280;9663;48.996;8.334;2023-09-08T13:36:52;100241.47;;;47.06
19061;BMP280;9663;48.996;8.334;2023-09-08T13:39:18;100236.22;;;46.49
19061;BMP280;9663;48.996;8.334;2023-09-08T13:41:53;100240.34;;;46.06
19061;BMP280;9663;48.996;8.334;2023-09-08T13:44:20;100237.63;;;45.72
19061;BMP280;9663;48.996;8.334;2023-09-08T13:46:47;100234.69;;;45.51
19061;BMP280;9663;48.996;8.334;2023-09-08T13:49:14;100239.06;;;45.46
19061;BMP280;9663;48.996;8.334;2023-09-08T13:51:42;100233.06;;;45.73
19061;BMP280;9663;48.996;8.334;2023-09-08T13:54:09;100232.03;;;46.31
19061;BMP280;9663;48.996;8.334;2023-09-08T13:56:35;100228.00;;;46.90
19061;BMP280;9663;48.996;8.334;2023-09-08T13:59:01;100231.19;;;47.80
19061;BMP280;9663;48.996;8.334;2023-09-08T14:01:27;100230.09;;;48.68
19061;BMP280;9663;48.996;8.334;2023-09-08T14:03:57;100220.88;;;49.37
19061;BMP280;9663;48.996;8.334;2023-09-08T14:06:23;100227.78;;;49.91
19061;BMP280;9663;48.996;8.334;2023-09-08T14:08:50;100228.56;;;50.27
19061;BMP280;9663;48.996;8.334;2023-09-08T14:11:16;100217.09;;;50.56
19061;BMP280;9663;48.996;8.334;2023-09-08T14:13:41;100220.53;;;50.93
19061;BMP280;9663;48.996;8.334;2023-09-08T14:16:08;100217.63;;;51.24
19061;BMP280;9663;48.996;8.334;2023-09-08T14:18:34;100215.97;;;51.43
19061;BMP280;9663;48.996;8.334;2023-09-08T14:21:00;100210.84;;;51.61
19061;BMP280;9663;48.996;8.334;2023-09-08T14:23:26;100214.91;;;51.79